This is the latest recevied weather packets stored in our database for station/object KI7JYE. If no packets are shown the sender has not sent any weather packets the latest 10 day(s).
| Time | Temp. | Humidity | Pressure | Rain* | Wind** | Luminosity | Snow |
|---|---|---|---|---|---|---|---|
| 1777944059 | 24.44° C | 59% | 1009.1 hPa | 0 mm | - | 149 W/m² | - |
| 1777943755 | 23.89° C | 60% | 1009.1 hPa | 0 mm | - | 167 W/m² | - |
| 1777943453 | 23.89° C | 61% | 1009.5 hPa | 0 mm | - | 178 W/m² | - |
| 1777943148 | 23.89° C | 61% | 1009.4 hPa | 0 mm | - | 194 W/m² | - |
| 1777942845 | 24.44° C | 59% | 1009.5 hPa | 0 mm | - | 209 W/m² | - |
| 1777942541 | 25° C | 56% | 1009.5 hPa | 0 mm | - | 223 W/m² | - |
| 1777942239 | 24.44° C | 58% | 1009.3 hPa | 0 mm | - | 229 W/m² | - |
| 1777941935 | 24.44° C | 58% | 1009.6 hPa | 0 mm | - | 234 W/m² | - |
| 1777941632 | 24.44° C | 57% | 1009.3 hPa | 0 mm | - | 260 W/m² | - |
| 1777941329 | 25° C | 58% | 1009.5 hPa | 0 mm | - | 270 W/m² | - |
| 1777941027 | 25° C | 57% | 1009.2 hPa | 0 mm | - | 278 W/m² | - |
| 1777940727 | 23.89° C | 59% | 1009.4 hPa | 0 mm | - | 298 W/m² | - |
| 1777940426 | 24.44° C | 58% | 1009.6 hPa | 0 mm | - | 317 W/m² | - |
| 1777940123 | 24.44° C | 59% | 1009.4 hPa | 0 mm | - | 339 W/m² | - |
| 1777939820 | 25° C | 59% | 1009.5 hPa | 0 mm | - | 351 W/m² | - |
| 1777939517 | 25.56° C | 58% | 1009.6 hPa | 0 mm | - | 364 W/m² | - |
| 1777939215 | 25° C | 58% | 1009.6 hPa | 0 mm | - | 377 W/m² | - |
| 1777938912 | 25.56° C | 56% | 1009.8 hPa | 0 mm | - | 384 W/m² | - |
| 1777938608 | 24.44° C | 58% | 1009.7 hPa | 0 mm | - | 387 W/m² | - |
| 1777938305 | 25° C | 57% | 1009.7 hPa | 0 mm | - | 388 W/m² | - |
| 1777938002 | 25° C | 58% | 1009.9 hPa | 0 mm | - | 399 W/m² | - |
| 1777937697 | 24.44° C | 58% | 1009.8 hPa | 0 mm | - | 359 W/m² | - |
| 1777937395 | 25° C | 56% | 1010 hPa | 0 mm | - | 420 W/m² | - |
| 1777937091 | 24.44° C | 59% | 1010 hPa | 0 mm | - | 449 W/m² | - |
| 1777936789 | 23.89° C | 58% | 1009.9 hPa | 0 mm | - | 469 W/m² | - |
* Rain latest hour (hover to see other rain measurements)
** Current wind speed in m/s (hover to see current wind gust speed)